Time;durP1;ratioP1;P1;durP2;ratioP2;P2;SDS_P1;SDS_P2;PMS_P1;PMS_P2;Temp;Humidity;BMP_temperature;BMP_pressure;BME280_temperature;BME280_humidity;BME280_pressure;Samples;Min_cycle;Max_cycle;Signal;HPM_P1;HPM_P2
2022/08/20 00:02:09;;;;;;;;;;;14.30;99.90;;;;;;5089777;28;19928;-54
2022/08/20 00:04:36;;;;;;;;;;;14.30;99.90;;;;;;5089039;28;19924;-57
2022/08/20 00:07:06;;;;;;;;;;;14.20;99.90;;;;;;5089472;28;19931;-56
2022/08/20 00:09:33;;;;;;;;;;;14.20;99.90;;;;;;5089321;28;19924;-54
2022/08/20 00:12:06;;;;;;;;;;;14.20;99.90;;;;;;5082866;28;19929;-56
2022/08/20 00:14:34;;;;;;;;;;;14.20;99.90;;;;;;5087460;28;19924;-55
2022/08/20 00:17:02;;;;;;;;;;;14.20;99.90;;;;;;5089385;28;19931;-55
2022/08/20 00:19:30;;;;;;;;;;;14.20;99.90;;;;;;5089003;28;19931;-55
2022/08/20 00:21:57;;;;;;;;;;;14.20;99.90;;;;;;5089294;28;19924;-55
2022/08/20 00:24:25;;;;;;;;;;;14.20;99.90;;;;;;5089090;28;20367;-54
2022/08/20 00:26:52;;;;;;;;;;;14.20;99.90;;;;;;5085471;28;20394;-61
2022/08/20 00:29:20;;;;;;;;;;;14.10;99.90;;;;;;5085174;28;19931;-61
2022/08/20 00:31:49;;;;;;;;;;;14.20;99.90;;;;;;5087889;28;19931;-61
2022/08/20 00:34:17;;;;;;;;;;;14.10;99.90;;;;;;5088855;28;19947;-61
2022/08/20 00:36:44;;;;;;;;;;;14.10;99.90;;;;;;5089151;28;19924;-57
2022/08/20 00:39:11;;;;;;;;;;;14.10;99.90;;;;;;5088974;28;19924;-54
2022/08/20 00:41:39;;;;;;;;;;;14.10;99.90;;;;;;5087547;28;19924;-57
2022/08/20 00:44:13;;;;;;;;;;;14.10;99.90;;;;;;5083483;28;19924;-60
2022/08/20 00:46:41;;;;;;;;;;;14.10;99.90;;;;;;5089139;28;19924;-54
2022/08/20 00:49:12;;;;;;;;;;;14.00;99.90;;;;;;5087523;28;19924;-55
2022/08/20 00:51:42;;;;;;;;;;;14.00;99.90;;;;;;5088892;28;19928;-57
2022/08/20 00:54:13;;;;;;;;;;;15.90;99.90;;;;;;5088882;28;20249;-55
2022/08/20 00:56:42;;;;;;;;;;;14.00;99.90;;;;;;5088364;28;20379;-55
2022/08/20 00:59:14;;;;;;;;;;;14.00;99.90;;;;;;5083561;28;19952;-56
2022/08/20 01:01:42;;;;;;;;;;;13.90;99.90;;;;;;5087872;28;19928;-53
2022/08/20 01:04:23;;;;;;;;;;;14.00;99.90;;;;;;5085313;28;20304;-54
2022/08/20 01:06:51;;;;;;;;;;;13.90;99.90;;;;;;5086442;28;20287;-60
2022/08/20 01:09:18;;;;;;;;;;;13.90;99.90;;;;;;5087122;28;19925;-59
2022/08/20 01:12:06;;;;;;;;;;;13.90;99.90;;;;;;5085847;28;19928;-61
2022/08/20 01:17:03;;;;;;;;;;;13.90;99.90;;;;;;5088476;28;19924;-60
2022/08/20 01:19:34;;;;;;;;;;;13.90;99.90;;;;;;5088877;28;19931;-54
2022/08/20 01:23:25;;;;;;;;;;;13.80;99.90;;;;;;5088724;28;19928;-62
2022/08/20 01:24:52;;;;;;;;;;;13.80;99.90;;;;;;5087115;28;19931;-55
2022/08/20 01:27:21;;;;;;;;;;;13.80;99.90;;;;;;5084911;28;19931;-61
2022/08/20 01:29:50;;;;;;;;;;;13.70;99.90;;;;;;5068302;28;19932;-59
2022/08/20 01:32:18;;;;;;;;;;;13.70;99.90;;;;;;5074458;28;19924;-59
2022/08/20 01:34:45;;;;;;;;;;;13.70;99.90;;;;;;5075415;28;19925;-55
2022/08/20 01:37:13;;;;;;;;;;;13.60;99.90;;;;;;5075192;28;19928;-55
2022/08/20 01:39:40;;;;;;;;;;;13.60;99.90;;;;;;5094411;28;20002;-60
2022/08/20 01:42:19;;;;;;;;;;;13.60;99.90;;;;;;5094312;28;19931;-54
2022/08/20 01:44:46;;;;;;;;;;;13.60;99.90;;;;;;5075007;28;19932;-54
2022/08/20 01:47:16;;;;;;;;;;;13.50;99.90;;;;;;5055502;28;19924;-54
2022/08/20 01:49:45;;;;;;;;;;;13.50;99.90;;;;;;5075104;28;19931;-55
2022/08/20 01:52:16;;;;;;;;;;;13.50;99.90;;;;;;5075263;28;19924;-55
2022/08/20 01:54:45;;;;;;;;;;;13.50;99.90;;;;;;5075080;28;19931;-58
2022/08/20 01:57:14;;;;;;;;;;;13.50;99.90;;;;;;5075099;28;20268;-61
2022/08/20 01:59:42;;;;;;;;;;;13.40;99.90;;;;;;5074650;28;19925;-59
2022/08/20 02:02:10;;;;;;;;;;;13.40;99.90;;;;;;5073865;28;19924;-53
2022/08/20 02:04:39;;;;;;;;;;;13.40;99.90;;;;;;5074959;28;19933;-61
2022/08/20 02:07:11;;;;;;;;;;;13.40;99.90;;;;;;5073436;28;20375;-54
2022/08/20 02:09:38;;;;;;;;;;;13.40;99.90;;;;;;5090784;28;20371;-57
2022/08/20 02:12:07;;;;;;;;;;;13.40;99.90;;;;;;5074817;28;19932;-56
2022/08/20 02:14:38;;;;;;;;;;;13.30;99.90;;;;;;5074355;28;19928;-56
2022/08/20 02:17:05;;;;;;;;;;;13.30;99.90;;;;;;5074970;28;19932;-55
2022/08/20 02:19:47;;;;;;;;;;;13.20;99.90;;;;;;5074873;28;19947;-59
2022/08/20 02:22:28;;;;;;;;;;;13.20;99.90;;;;;;5074600;28;19936;-61
2022/08/20 02:24:55;;;;;;;;;;;13.20;99.90;;;;;;5074645;28;19925;-57
2022/08/20 02:27:23;;;;;;;;;;;13.20;99.90;;;;;;5074761;28;19924;-54
2022/08/20 02:29:51;;;;;;;;;;;13.20;99.90;;;;;;5074070;28;20397;-56
2022/08/20 02:32:19;;;;;;;;;;;13.20;99.90;;;;;;5056588;28;20379;-55
2022/08/20 02:35:02;;;;;;;;;;;13.10;99.90;;;;;;5074447;28;19931;-54
2022/08/20 02:37:30;;;;;;;;;;;13.10;99.90;;;;;;5074217;28;19925;-55
2022/08/20 02:39:57;;;;;;;;;;;13.10;99.90;;;;;;5074354;28;19947;-53
2022/08/20 02:42:25;;;;;;;;;;;13.10;99.90;;;;;;5072943;28;19951;-53
2022/08/20 02:44:53;;;;;;;;;;;13.00;99.90;;;;;;5074504;28;19925;-54
2022/08/20 02:47:20;;;;;;;;;;;13.00;99.90;;;;;;5074055;28;19924;-54
2022/08/20 02:49:48;;;;;;;;;;;13.00;99.90;;;;;;5074076;28;19925;-54
2022/08/20 02:52:15;;;;;;;;;;;13.00;99.90;;;;;;5074188;28;19924;-54
2022/08/20 02:54:43;;;;;;;;;;;13.00;99.90;;;;;;5074130;28;19932;-53
2022/08/20 02:57:14;;;;;;;;;;;13.00;99.90;;;;;;5073939;28;20287;-54
2022/08/20 02:59:43;;;;;;;;;;;13.00;99.90;;;;;;5072679;28;19924;-54
2022/08/20 03:02:10;;;;;;;;;;;13.00;99.90;;;;;;5074020;28;20327;-56
2022/08/20 03:04:38;;;;;;;;;;;13.00;99.90;;;;;;5073771;28;19925;-54
2022/08/20 03:07:06;;;;;;;;;;;13.00;99.90;;;;;;5073737;28;19924;-56
2022/08/20 03:09:33;;;;;;;;;;;13.00;99.90;;;;;;5073773;28;19924;-55
2022/08/20 03:12:01;;;;;;;;;;;13.00;99.90;;;;;;5073552;28;19929;-53
2022/08/20 03:14:29;;;;;;;;;;;12.90;99.90;;;;;;5073520;28;19925;-54
2022/08/20 03:16:56;;;;;;;;;;;12.90;99.90;;;;;;5073579;28;19931;-54
2022/08/20 03:19:24;;;;;;;;;;;12.90;99.90;;;;;;5073649;28;19924;-54
2022/08/20 03:21:51;;;;;;;;;;;12.90;99.90;;;;;;5073680;28;20002;-54
2022/08/20 03:24:19;;;;;;;;;;;12.80;99.90;;;;;;5073376;28;20272;-55
2022/08/20 03:26:46;;;;;;;;;;;12.80;99.90;;;;;;5073471;28;19925;-54
2022/08/20 03:29:13;;;;;;;;;;;12.80;99.90;;;;;;5072370;28;19931;-54
2022/08/20 03:31:41;;;;;;;;;;;12.80;99.90;;;;;;5073202;28;20283;-54
2022/08/20 03:34:08;;;;;;;;;;;12.60;99.90;;;;;;5073199;28;19925;-54
2022/08/20 03:36:36;;;;;;;;;;;12.80;99.90;;;;;;5073432;28;19936;-59
2022/08/20 03:39:04;;;;;;;;;;;12.80;99.90;;;;;;5073284;28;20307;-57
2022/08/20 03:41:32;;;;;;;;;;;12.80;99.90;;;;;;5073002;28;19925;-60
2022/08/20 03:43:59;;;;;;;;;;;12.80;99.90;;;;;;5073104;28;19947;-60
2022/08/20 03:46:27;;;;;;;;;;;12.80;99.90;;;;;;5072918;28;19924;-55
2022/08/20 03:48:55;;;;;;;;;;;12.90;99.90;;;;;;5073020;28;20025;-56
2022/08/20 03:51:30;;;;;;;;;;;12.90;99.90;;;;;;5073181;28;19925;-54
2022/08/20 03:54:09;;;;;;;;;;;12.90;99.90;;;;;;5072559;28;19928;-55
2022/08/20 03:56:37;;;;;;;;;;;13.00;99.90;;;;;;5072779;28;19924;-60
2022/08/20 03:59:04;;;;;;;;;;;13.00;99.90;;;;;;5072934;28;20425;-58
2022/08/20 04:01:31;;;;;;;;;;;13.10;99.90;;;;;;5072796;28;19925;-55
2022/08/20 04:04:13;;;;;;;;;;;13.10;99.90;;;;;;5088382;28;20007;-55
2022/08/20 04:06:41;;;;;;;;;;;13.20;99.90;;;;;;5072566;28;19924;-56
2022/08/20 04:09:09;;;;;;;;;;;13.20;99.90;;;;;;5072566;28;19946;-54
2022/08/20 04:11:39;;;;;;;;;;;13.30;99.90;;;;;;5071360;28;20322;-57
2022/08/20 04:14:06;;;;;;;;;;;13.40;99.90;;;;;;5072610;28;19924;-61
2022/08/20 04:16:36;;;;;;;;;;;13.30;99.90;;;;;;5072504;28;19928;-60
2022/08/20 04:19:03;;;;;;;;;;;13.40;99.90;;;;;;5072473;28;19932;-59
2022/08/20 04:21:32;;;;;;;;;;;13.40;99.90;;;;;;5072440;28;19925;-59
2022/08/20 04:24:01;;;;;;;;;;;13.40;99.90;;;;;;5072495;28;19925;-56
2022/08/20 04:26:29;;;;;;;;;;;13.40;99.90;;;;;;5072292;28;19925;-56
2022/08/20 04:28:56;;;;;;;;;;;13.40;99.90;;;;;;5072350;28;19924;-54
2022/08/20 04:31:24;;;;;;;;;;;13.50;99.90;;;;;;5072266;28;19924;-61
2022/08/20 04:33:51;;;;;;;;;;;13.50;99.90;;;;;;5054473;28;19931;-61
2022/08/20 04:36:19;;;;;;;;;;;13.60;99.90;;;;;;5072511;28;19924;-59
2022/08/20 04:38:46;;;;;;;;;;;13.60;99.90;;;;;;5071000;28;19932;-59
2022/08/20 04:41:17;;;;;;;;;;;13.70;99.90;;;;;;5071037;28;19932;-56
2022/08/20 04:43:51;;;;;;;;;;;13.70;99.90;;;;;;5072283;28;19924;-58
2022/08/20 04:46:19;;;;;;;;;;;13.80;99.90;;;;;;5071934;28;19932;-59
2022/08/20 04:48:47;;;;;;;;;;;13.90;99.90;;;;;;5069087;28;19932;-54
2022/08/20 04:51:17;;;;;;;;;;;13.90;99.90;;;;;;5068646;28;19935;-54
2022/08/20 04:53:45;;;;;;;;;;;14.00;99.90;;;;;;5068782;28;19931;-58
2022/08/20 04:56:22;;;;;;;;;;;14.00;99.90;;;;;;5068855;28;19925;-60
2022/08/20 04:58:51;;;;;;;;;;;14.10;99.90;;;;;;5083167;28;19924;-60
2022/08/20 05:01:19;;;;;;;;;;;14.10;99.90;;;;;;5088932;28;19924;-60
2022/08/20 05:03:46;;;;;;;;;;;14.20;99.90;;;;;;5068144;28;19931;-60
2022/08/20 05:06:16;;;;;;;;;;;14.20;99.90;;;;;;5083257;28;19924;-61
2022/08/20 05:08:43;;;;;;;;;;;14.30;99.90;;;;;;5088185;28;19924;-61
2022/08/20 05:11:11;;;;;;;;;;;14.40;99.90;;;;;;5090122;28;20276;-61
2022/08/20 05:13:58;;;;;;;;;;;14.40;99.90;;;;;;5092677;28;19925;-61
2022/08/20 05:16:26;;;;;;;;;;;14.40;99.90;;;;;;5092816;28;19928;-60
2022/08/20 05:18:53;;;;;;;;;;;14.50;99.90;;;;;;5078898;28;19924;-61
2022/08/20 05:21:21;;;;;;;;;;;14.50;99.90;;;;;;5072395;28;19932;-60
2022/08/20 05:23:48;;;;;;;;;;;14.50;99.90;;;;;;5084061;28;20383;-61
2022/08/20 05:26:18;;;;;;;;;;;14.60;99.90;;;;;;5091801;28;20294;-58
2022/08/20 05:28:47;;;;;;;;;;;14.60;99.90;;;;;;5089249;28;19955;-59
2022/08/20 05:31:26;;;;;;;;;;;14.60;99.90;;;;;;5088986;28;19931;-60
2022/08/20 05:34:00;;;;;;;;;;;14.70;99.90;;;;;;5091720;28;20290;-59
2022/08/20 05:36:27;;;;;;;;;;;14.70;99.90;;;;;;5090621;28;20458;-59
2022/08/20 05:38:55;;;;;;;;;;;14.70;99.90;;;;;;5087890;28;19936;-60
2022/08/20 05:41:23;;;;;;;;;;;14.70;99.90;;;;;;5074112;28;19932;-58
2022/08/20 05:43:59;;;;;;;;;;;14.70;99.90;;;;;;5084595;28;19924;-60
2022/08/20 05:46:28;;;;;;;;;;;14.70;99.90;;;;;;5092103;28;20298;-59
2022/08/20 05:48:55;;;;;;;;;;;14.80;99.90;;;;;;5079682;28;19936;-59
2022/08/20 05:51:27;;;;;;;;;;;14.80;99.90;;;;;;5071961;28;20311;-57
2022/08/20 05:53:56;;;;;;;;;;;14.80;99.90;;;;;;5084157;28;19955;-61
2022/08/20 05:56:29;;;;;;;;;;;14.80;99.90;;;;;;5091919;28;20402;-60
2022/08/20 05:59:03;;;;;;;;;;;14.80;99.90;;;;;;5092066;28;19928;-55
2022/08/20 06:01:31;;;;;;;;;;;14.80;99.90;;;;;;5092225;28;19923;-54
2022/08/20 06:06:45;;;;;;;;;;;14.80;99.90;;;;;;5072176;28;19931;-55
2022/08/20 06:09:15;;;;;;;;;;;14.80;99.90;;;;;;5091463;28;19928;-55
2022/08/20 06:11:42;;;;;;;;;;;14.80;99.90;;;;;;5092347;28;19931;-56
2022/08/20 06:14:09;;;;;;;;;;;14.80;99.90;;;;;;5091838;28;19932;-57
2022/08/20 06:16:37;;;;;;;;;;;14.90;99.90;;;;;;5090129;28;19935;-58
2022/08/20 06:19:05;;;;;;;;;;;14.80;99.90;;;;;;5086861;28;20003;-54
2022/08/20 06:21:38;;;;;;;;;;;14.90;99.90;;;;;;5071237;28;19929;-60
2022/08/20 06:24:06;;;;;;;;;;;14.90;99.90;;;;;;5085123;28;20402;-55
2022/08/20 06:26:34;;;;;;;;;;;14.90;99.90;;;;;;5091687;28;19998;-59
2022/08/20 06:29:03;;;;;;;;;;;14.90;99.90;;;;;;5090326;28;19931;-56
2022/08/20 06:31:31;;;;;;;;;;;14.90;99.90;;;;;;5091213;28;20283;-54
2022/08/20 06:33:58;;;;;;;;;;;14.90;99.90;;;;;;5081664;28;20264;-59
2022/08/20 06:36:26;;;;;;;;;;;14.90;99.90;;;;;;5071249;28;19925;-61
2022/08/20 06:38:54;;;;;;;;;;;14.90;99.90;;;;;;5087430;28;20367;-61
2022/08/20 06:41:22;;;;;;;;;;;14.90;99.90;;;;;;5091225;28;19924;-61
2022/08/20 06:44:03;;;;;;;;;;;14.90;99.90;;;;;;5090816;28;19925;-60
2022/08/20 06:46:31;;;;;;;;;;;14.90;99.90;;;;;;5091047;28;19924;-59
2022/08/20 06:48:58;;;;;;;;;;;15.00;99.90;;;;;;5082773;28;19929;-59
2022/08/20 06:51:25;;;;;;;;;;;15.00;99.90;;;;;;5070732;28;19932;-59
2022/08/20 06:53:53;;;;;;;;;;;15.00;99.90;;;;;;5082395;28;19924;-60
2022/08/20 06:56:20;;;;;;;;;;;15.10;99.90;;;;;;5091147;28;19924;-60
2022/08/20 06:58:48;;;;;;;;;;;15.20;99.90;;;;;;5090919;28;19928;-59
2022/08/20 07:01:24;;;;;;;;;;;15.40;99.90;;;;;;5088827;28;19924;-61
2022/08/20 07:03:52;;;;;;;;;;;15.50;99.90;;;;;;5082195;28;19928;-61
2022/08/20 07:06:25;;;;;;;;;;;15.70;99.90;;;;;;5065876;28;20627;-60
2022/08/20 07:08:54;;;;;;;;;;;15.80;99.90;;;;;;5086421;28;20379;-60
2022/08/20 07:11:22;;;;;;;;;;;15.90;99.90;;;;;;5090591;28;19924;-61
2022/08/20 07:13:55;;;;;;;;;;;16.00;99.90;;;;;;5090390;28;19924;-61
2022/08/20 07:16:23;;;;;;;;;;;16.00;99.90;;;;;;5090289;28;19928;-61
2022/08/20 07:18:50;;;;;;;;;;;16.10;99.90;;;;;;5085135;28;19928;-61
2022/08/20 07:21:18;;;;;;;;;;;16.20;99.90;;;;;;5070271;28;19943;-60
2022/08/20 07:23:47;;;;;;;;;;;16.30;99.90;;;;;;5080230;28;19931;-55
2022/08/20 07:26:15;;;;;;;;;;;16.50;99.90;;;;;;5090347;28;19931;-60
2022/08/20 07:28:42;;;;;;;;;;;16.60;99.90;;;;;;5089354;28;19931;-55
2022/08/20 07:33:57;;;;;;;;;;;16.70;99.90;;;;;;5085446;28;20097;-59
2022/08/20 07:36:26;;;;;;;;;;;16.80;99.90;;;;;;5069895;28;19931;-61
2022/08/20 07:38:54;;;;;;;;;;;16.80;99.90;;;;;;5085244;28;19990;-61
2022/08/20 07:41:23;;;;;;;;;;;16.90;99.90;;;;;;5088773;28;19931;-62
2022/08/20 07:43:50;;;;;;;;;;;16.90;99.90;;;;;;5090011;28;19928;-61
2022/08/20 07:46:18;;;;;;;;;;;17.00;99.90;;;;;;5089902;28;19924;-62
2022/08/20 07:48:48;;;;;;;;;;;17.00;99.90;;;;;;5087304;28;19939;-63
2022/08/20 07:51:18;;;;;;;;;;;17.10;99.90;;;;;;5069579;28;19925;-60
2022/08/20 07:53:46;;;;;;;;;;;17.10;99.90;;;;;;5079753;28;20367;-62
2022/08/20 07:56:15;;;;;;;;;;;17.20;99.90;;;;;;5089829;28;19931;-62
2022/08/20 07:58:48;;;;;;;;;;;17.20;99.90;;;;;;5087088;28;19924;-62
2022/08/20 08:01:24;;;;;;;;;;;17.30;99.90;;;;;;5086416;28;19951;-62
2022/08/20 08:03:52;;;;;;;;;;;17.40;99.90;;;;;;5082534;28;19928;-60
2022/08/20 08:06:20;;;;;;;;;;;17.40;99.90;;;;;;5066152;28;20831;-61
2022/08/20 08:09:02;;;;;;;;;;;17.40;99.90;;;;;;5084469;28;19924;-61
2022/08/20 08:11:32;;;;;;;;;;;17.40;99.90;;;;;;5089450;28;19931;-62
2022/08/20 08:13:59;;;;;;;;;;;17.50;99.90;;;;;;5089236;28;19952;-60
2022/08/20 08:16:27;;;;;;;;;;;17.50;99.90;;;;;;5087924;28;20422;-62
2022/08/20 08:18:55;;;;;;;;;;;17.60;99.90;;;;;;5087103;28;19931;-62
2022/08/20 08:21:23;;;;;;;;;;;17.60;99.90;;;;;;5069263;28;19932;-61
2022/08/20 08:23:52;;;;;;;;;;;17.70;99.90;;;;;;5080090;28;19928;-58
2022/08/20 08:26:20;;;;;;;;;;;17.70;99.90;;;;;;5089192;28;19947;-55
2022/08/20 08:28:47;;;;;;;;;;;17.70;99.90;;;;;;5089216;28;19931;-55
2022/08/20 08:31:15;;;;;;;;;;;17.80;99.90;;;;;;5089338;28;19925;-54
2022/08/20 08:33:42;;;;;;;;;;;17.90;99.90;;;;;;5088903;28;20295;-55
2022/08/20 08:36:11;;;;;;;;;;;17.90;99.90;;;;;;5084334;28;19935;-55
2022/08/20 08:38:39;;;;;;;;;;;18.00;99.90;;;;;;5082336;28;19928;-54
2022/08/20 08:41:12;;;;;;;;;;;18.10;99.90;;;;;;5089193;28;19942;-61
2022/08/20 08:43:40;;;;;;;;;;;18.20;99.90;;;;;;5088579;28;19924;-61
2022/08/20 08:46:09;;;;;;;;;;;18.20;99.90;;;;;;5088960;28;19947;-62
2022/08/20 08:48:42;;;;;;;;;;;18.20;99.90;;;;;;5087552;28;20481;-62
2022/08/20 08:51:11;;;;;;;;;;;18.20;99.90;;;;;;5084145;28;20159;-56
2022/08/20 08:53:57;;;;;;;;;;;18.20;99.90;;;;;;5077373;28;20406;-60
2022/08/20 08:56:28;;;;;;;;;;;18.30;99.90;;;;;;5088968;28;20288;-56
2022/08/20 08:59:07;;;;;;;;;;;18.40;99.90;;;;;;5088905;28;20010;-56
2022/08/20 09:01:41;;;;;;;;;;;18.50;99.90;;;;;;5088726;28;19931;-61
2022/08/20 09:04:29;;;;;;;;;;;18.50;99.90;;;;;;5085622;28;20414;-62
2022/08/20 09:06:57;;;;;;;;;;;18.70;99.90;;;;;;5068244;28;19925;-61
2022/08/20 09:09:26;;;;;;;;;;;18.70;99.90;;;;;;5088480;28;19931;-62
2022/08/20 09:11:55;;;;;;;;;;;18.80;99.90;;;;;;5088870;28;19951;-55
2022/08/20 09:14:25;;;;;;;;;;;18.80;99.90;;;;;;5088475;28;19935;-56
2022/08/20 09:16:52;;;;;;;;;;;18.90;99.90;;;;;;5087367;28;19924;-57
2022/08/20 09:19:20;;;;;;;;;;;19.00;99.90;;;;;;5086842;28;20299;-56
2022/08/20 09:21:48;;;;;;;;;;;19.10;99.90;;;;;;5068522;28;19924;-55
2022/08/20 09:24:15;;;;;;;;;;;19.10;99.90;;;;;;5081981;28;20375;-61
2022/08/20 09:26:43;;;;;;;;;;;19.30;99.90;;;;;;5088489;28;19931;-62
2022/08/20 09:29:10;;;;;;;;;;;19.40;99.90;;;;;;5088371;28;19928;-62
2022/08/20 09:31:38;;;;;;;;;;;19.50;99.90;;;;;;5088552;28;20314;-56
2022/08/20 09:34:06;;;;;;;;;;;19.60;99.90;;;;;;5088222;28;19925;-62
2022/08/20 09:36:34;;;;;;;;;;;19.60;99.90;;;;;;5069611;28;19932;-55
2022/08/20 09:39:01;;;;;;;;;;;19.60;99.90;;;;;;5084521;28;19924;-58
2022/08/20 09:41:30;;;;;;;;;;;19.70;99.90;;;;;;5088457;28;19928;-55
2022/08/20 09:44:01;;;;;;;;;;;19.70;99.90;;;;;;5088315;28;19928;-58
2022/08/20 09:46:28;;;;;;;;;;;19.70;99.90;;;;;;5087469;28;19931;-56
2022/08/20 09:48:56;;;;;;;;;;;19.70;99.90;;;;;;5088190;28;20371;-56
2022/08/20 09:51:23;;;;;;;;;;;19.60;99.90;;;;;;5071155;28;19928;-56
2022/08/20 09:53:51;;;;;;;;;;;19.50;99.90;;;;;;5082154;28;19928;-58
2022/08/20 09:56:19;;;;;;;;;;;19.40;99.90;;;;;;5092315;28;20379;-57
2022/08/20 09:58:48;;;;;;;;;;;19.40;99.90;;;;;;5090498;28;19925;-54
2022/08/20 10:01:17;;;;;;;;;;;19.50;99.90;;;;;;5090789;28;19924;-57
2022/08/20 10:03:49;;;;;;;;;;;19.70;99.90;;;;;;5088618;28;20388;-62
2022/08/20 10:06:18;;;;;;;;;;;19.90;99.90;;;;;;5074981;28;20372;-61
2022/08/20 10:08:47;;;;;;;;;;;20.00;99.90;;;;;;5085793;28;19928;-56
2022/08/20 10:11:14;;;;;;;;;;;20.20;99.90;;;;;;5092143;28;19935;-61
2022/08/20 10:13:44;;;;;;;;;;;20.20;99.90;;;;;;5091776;28;20745;-61
2022/08/20 10:16:12;;;;;;;;;;;20.40;99.90;;;;;;5091827;28;20375;-59
2022/08/20 10:18:39;;;;;;;;;;;20.50;99.70;;;;;;5091338;28;19928;-60
2022/08/20 10:21:10;;;;;;;;;;;20.70;99.70;;;;;;5079111;28;19951;-62
2022/08/20 10:23:38;;;;;;;;;;;20.80;99.70;;;;;;5079494;28;19924;-60
2022/08/20 10:26:06;;;;;;;;;;;20.90;98.90;;;;;;5091935;28;19932;-62
2022/08/20 10:28:34;;;;;;;;;;;20.90;98.40;;;;;;5090019;28;19935;-60
2022/08/20 10:31:04;;;;;;;;;;;20.80;98.70;;;;;;5090300;28;19924;-60
2022/08/20 10:33:31;;;;;;;;;;;20.80;99.10;;;;;;5090064;28;19939;-61
2022/08/20 10:36:05;;;;;;;;;;;20.70;99.40;;;;;;5081381;28;19929;-60
2022/08/20 10:38:32;;;;;;;;;;;20.90;99.00;;;;;;5083266;28;19928;-60
2022/08/20 10:41:00;;;;;;;;;;;20.90;98.40;;;;;;5091268;28;19928;-58
2022/08/20 10:43:27;;;;;;;;;;;20.90;98.20;;;;;;5090885;28;19944;-57
2022/08/20 10:45:54;;;;;;;;;;;20.80;98.30;;;;;;5091132;28;19924;-55
2022/08/20 10:48:22;;;;;;;;;;;20.80;98.80;;;;;;5090905;28;19928;-55
2022/08/20 10:50:50;;;;;;;;;;;21.00;98.70;;;;;;5083255;28;19925;-55
2022/08/20 10:53:17;;;;;;;;;;;21.10;98.70;;;;;;5075734;28;19924;-54
2022/08/20 10:55:45;;;;;;;;;;;21.20;98.10;;;;;;5090990;28;19924;-56
2022/08/20 10:58:12;;;;;;;;;;;21.40;97.50;;;;;;5090946;28;19948;-55
2022/08/20 11:00:40;;;;;;;;;;;21.70;96.30;;;;;;5090851;28;19936;-55
2022/08/20 11:03:07;;;;;;;;;;;21.80;96.10;;;;;;5089519;28;19928;-55
2022/08/20 11:05:35;;;;;;;;;;;21.90;96.10;;;;;;5086294;28;19925;-56
2022/08/20 11:08:03;;;;;;;;;;;22.00;93.60;;;;;;5078528;28;19924;-55
2022/08/20 11:10:32;;;;;;;;;;;21.90;94.00;;;;;;5090770;28;19924;-56
2022/08/20 11:13:01;;;;;;;;;;;21.70;93.80;;;;;;5089271;28;19928;-60
2022/08/20 11:15:28;;;;;;;;;;;21.60;94.20;;;;;;5090301;28;19928;-60
2022/08/20 11:17:56;;;;;;;;;;;21.60;94.20;;;;;;5090424;28;19931;-57
2022/08/20 11:20:25;;;;;;;;;;;21.70;94.10;;;;;;5088593;28;19924;-62
2022/08/20 11:22:53;;;;;;;;;;;21.90;93.90;;;;;;5071512;28;19925;-61
2022/08/20 11:25:20;;;;;;;;;;;22.10;93.80;;;;;;5090303;28;19924;-61
2022/08/20 11:27:49;;;;;;;;;;;22.10;93.70;;;;;;5090159;28;19939;-56
2022/08/20 11:30:23;;;;;;;;;;;22.40;94.00;;;;;;5089793;28;21114;-57
2022/08/20 11:32:51;;;;;;;;;;;22.60;92.90;;;;;;5088918;28;19928;-62
2022/08/20 11:35:20;;;;;;;;;;;22.90;91.40;;;;;;5088785;28;19924;-60
2022/08/20 11:38:07;;;;;;;;;;;23.00;90.70;;;;;;5078392;28;19924;-62
2022/08/20 11:40:35;;;;;;;;;;;23.00;90.80;;;;;;5088666;28;19924;-56
2022/08/20 11:43:02;;;;;;;;;;;22.90;90.90;;;;;;5089856;28;19932;-55
2022/08/20 11:45:42;;;;;;;;;;;22.90;90.70;;;;;;5090166;28;19924;-55
2022/08/20 11:48:09;;;;;;;;;;;22.80;90.50;;;;;;5089837;28;19950;-62
2022/08/20 11:50:37;;;;;;;;;;;22.80;90.20;;;;;;5088231;28;19924;-55
2022/08/20 11:53:04;;;;;;;;;;;22.70;90.10;;;;;;5072045;28;19924;-55
2022/08/20 11:55:34;;;;;;;;;;;22.70;89.50;;;;;;5089794;28;19924;-55
2022/08/20 11:58:03;;;;;;;;;;;22.70;90.50;;;;;;5089843;28;19924;-56
2022/08/20 12:00:30;;;;;;;;;;;22.70;89.20;;;;;;5089394;28;19928;-61
2022/08/20 12:03:03;;;;;;;;;;;22.60;90.20;;;;;;5086180;28;19931;-56
2022/08/20 12:05:31;;;;;;;;;;;22.80;89.80;;;;;;5085100;28;19935;-55
2022/08/20 12:07:59;;;;;;;;;;;22.70;89.30;;;;;;5078060;27;20303;-59
2022/08/20 12:10:27;;;;;;;;;;;22.90;88.80;;;;;;5089702;28;19932;-56
2022/08/20 12:12:55;;;;;;;;;;;23.20;87.40;;;;;;5089475;28;19924;-61
2022/08/20 12:15:25;;;;;;;;;;;23.50;86.10;;;;;;5089010;28;19924;-61
2022/08/20 12:17:53;;;;;;;;;;;23.60;86.40;;;;;;5089435;28;20750;-60
2022/08/20 12:20:21;;;;;;;;;;;23.60;85.10;;;;;;5089609;28;20283;-62
2022/08/20 12:22:49;;;;;;;;;;;23.40;85.70;;;;;;5072256;28;19932;-60
2022/08/20 12:25:16;;;;;;;;;;;23.20;86.30;;;;;;5088350;28;19931;-60
2022/08/20 12:27:44;;;;;;;;;;;23.30;86.50;;;;;;5089124;28;20386;-57
2022/08/20 12:30:16;;;;;;;;;;;23.50;84.80;;;;;;5089081;28;19924;-57
2022/08/20 12:32:43;;;;;;;;;;;23.70;84.40;;;;;;5089176;28;20375;-55
2022/08/20 12:35:12;;;;;;;;;;;24.10;82.50;;;;;;5068951;28;19928;-56
2022/08/20 12:37:40;;;;;;;;;;;24.50;81.70;;;;;;5073026;28;19927;-60
2022/08/20 12:40:09;;;;;;;;;;;24.90;82.40;;;;;;5089358;28;20403;-61
2022/08/20 12:42:37;;;;;;;;;;;25.30;82.10;;;;;;5089286;28;20691;-60
2022/08/20 12:45:05;;;;;;;;;;;25.70;79.60;;;;;;5088759;28;19935;-57
2022/08/20 12:47:34;;;;;;;;;;;25.80;78.80;;;;;;5089095;28;19924;-62
2022/08/20 12:50:04;;;;;;;;;;;26.00;77.50;;;;;;5088997;28;19931;-60
2022/08/20 12:52:31;;;;;;;;;;;26.00;76.70;;;;;;5076025;28;19928;-62
2022/08/20 12:54:59;;;;;;;;;;;25.90;76.70;;;;;;5087281;28;19931;-61
2022/08/20 12:57:28;;;;;;;;;;;26.00;76.50;;;;;;5088717;28;20372;-60
2022/08/20 12:59:57;;;;;;;;;;;26.10;76.00;;;;;;5088869;28;19928;-61
2022/08/20 13:02:25;;;;;;;;;;;26.30;75.70;;;;;;5086328;28;19925;-60
2022/08/20 13:04:53;;;;;;;;;;;26.50;75.00;;;;;;5085371;28;19931;-61
2022/08/20 13:07:21;;;;;;;;;;;26.70;75.00;;;;;;5084957;28;19924;-61
2022/08/20 13:09:49;;;;;;;;;;;26.70;72.50;;;;;;5088627;28;20409;-56
2022/08/20 13:12:17;;;;;;;;;;;26.70;71.90;;;;;;5088361;28;19924;-56
2022/08/20 13:14:44;;;;;;;;;;;26.50;71.40;;;;;;5088255;28;19939;-60
2022/08/20 13:17:15;;;;;;;;;;;26.10;73.20;;;;;;5088678;28;19924;-55
2022/08/20 13:19:44;;;;;;;;;;;26.10;74.60;;;;;;5088760;28;19924;-57
2022/08/20 13:22:12;;;;;;;;;;;26.40;75.00;;;;;;5078871;28;19933;-56
2022/08/20 13:24:40;;;;;;;;;;;26.90;71.40;;;;;;5083826;28;19924;-56
2022/08/20 13:27:12;;;;;;;;;;;27.00;71.20;;;;;;5090704;28;19924;-56
2022/08/20 13:29:47;;;;;;;;;;;27.20;71.40;;;;;;5092700;28;19924;-56
2022/08/20 13:32:14;;;;;;;;;;;27.20;71.00;;;;;;5092797;28;19935;-55
2022/08/20 13:34:42;;;;;;;;;;;27.30;71.20;;;;;;5092279;28;19959;-56
2022/08/20 13:37:13;;;;;;;;;;;27.60;70.10;;;;;;5084768;28;19925;-56
2022/08/20 13:39:41;;;;;;;;;;;27.60;69.20;;;;;;5092430;28;19930;-56
2022/08/20 13:42:09;;;;;;;;;;;27.70;70.80;;;;;;5091402;28;19939;-61
2022/08/20 13:44:36;;;;;;;;;;;27.80;69.40;;;;;;5091027;28;19924;-59
2022/08/20 13:47:18;;;;;;;;;;;27.80;69.60;;;;;;5091328;28;20299;-62
2022/08/20 13:49:46;;;;;;;;;;;27.80;70.30;;;;;;5090834;28;19924;-55
2022/08/20 13:52:14;;;;;;;;;;;28.00;70.00;;;;;;5084354;28;19932;-56
2022/08/20 13:54:43;;;;;;;;;;;28.10;69.40;;;;;;5087732;28;19931;-62
2022/08/20 13:57:12;;;;;;;;;;;28.00;69.20;;;;;;5092131;28;19924;-56
2022/08/20 13:59:40;;;;;;;;;;;27.80;69.10;;;;;;5092343;28;20390;-56
2022/08/20 14:02:09;;;;;;;;;;;27.70;69.90;;;;;;5092257;28;19931;-60
2022/08/20 14:04:37;;;;;;;;;;;27.90;68.60;;;;;;5091689;28;19935;-56
2022/08/20 14:07:24;;;;;;;;;;;27.90;67.70;;;;;;5086815;28;19925;-60
2022/08/20 14:10:05;;;;;;;;;;;27.80;64.50;;;;;;5071728;28;19924;-57
2022/08/20 14:12:32;;;;;;;;;;;27.30;66.70;;;;;;5071802;28;20387;-57
2022/08/20 14:15:00;;;;;;;;;;;27.30;65.30;;;;;;5088593;28;19924;-58
2022/08/20 14:17:29;;;;;;;;;;;27.40;66.00;;;;;;5092055;28;19932;-57
2022/08/20 14:20:01;;;;;;;;;;;27.60;65.60;;;;;;5092006;28;19928;-56
2022/08/20 14:22:29;;;;;;;;;;;27.90;64.40;;;;;;5084407;28;19924;-58
2022/08/20 14:25:01;;;;;;;;;;;28.00;64.20;;;;;;5089110;28;19943;-60
2022/08/20 14:27:30;;;;;;;;;;;27.70;64.70;;;;;;5091532;28;19931;-55
2022/08/20 14:29:58;;;;;;;;;;;27.40;65.50;;;;;;5091476;28;19934;-62
2022/08/20 14:32:25;;;;;;;;;;;26.90;66.90;;;;;;5091513;28;20430;-61
2022/08/20 14:34:53;;;;;;;;;;;26.50;67.60;;;;;;5091340;28;19924;-55
2022/08/20 14:37:22;;;;;;;;;;;26.30;68.50;;;;;;5086803;28;19928;-61